sensor_id;sensor_type;location;lat;lon;timestamp;P1;durP1;ratioP1;P2;durP2;ratioP2
23119;SDS011;11729;50.836;4.330;2022-12-24T00:02:00;39.80;;;11.15;;
23119;SDS011;11729;50.836;4.330;2022-12-24T00:04:26;40.08;;;9.70;;
23119;SDS011;11729;50.836;4.330;2022-12-24T00:06:52;51.70;;;10.90;;
23119;SDS011;11729;50.836;4.330;2022-12-24T00:09:17;45.50;;;10.73;;
23119;SDS011;11729;50.836;4.330;2022-12-24T00:11:43;45.35;;;11.07;;
23119;SDS011;11729;50.836;4.330;2022-12-24T00:14:08;54.42;;;11.45;;
23119;SDS011;11729;50.836;4.330;2022-12-24T00:16:34;42.13;;;11.65;;
23119;SDS011;11729;50.836;4.330;2022-12-24T00:18:59;51.85;;;11.18;;
23119;SDS011;11729;50.836;4.330;2022-12-24T00:21:25;49.13;;;12.18;;
23119;SDS011;11729;50.836;4.330;2022-12-24T00:23:51;49.88;;;11.25;;
23119;SDS011;11729;50.836;4.330;2022-12-24T00:26:16;61.90;;;12.98;;
23119;SDS011;11729;50.836;4.330;2022-12-24T00:28:42;49.17;;;11.60;;
23119;SDS011;11729;50.836;4.330;2022-12-24T00:31:08;50.38;;;10.80;;
23119;SDS011;11729;50.836;4.330;2022-12-24T00:33:36;50.72;;;11.93;;
23119;SDS011;11729;50.836;4.330;2022-12-24T00:36:01;44.60;;;11.68;;
23119;SDS011;11729;50.836;4.330;2022-12-24T00:38:27;56.42;;;12.38;;
23119;SDS011;11729;50.836;4.330;2022-12-24T00:40:57;54.88;;;12.27;;
23119;SDS011;11729;50.836;4.330;2022-12-24T00:43:27;48.92;;;11.15;;
23119;SDS011;11729;50.836;4.330;2022-12-24T00:45:53;48.83;;;11.98;;
23119;SDS011;11729;50.836;4.330;2022-12-24T00:48:19;60.25;;;11.77;;
23119;SDS011;11729;50.836;4.330;2022-12-24T00:50:44;56.80;;;11.50;;
23119;SDS011;11729;50.836;4.330;2022-12-24T00:53:10;58.33;;;11.70;;
23119;SDS011;11729;50.836;4.330;2022-12-24T00:55:36;52.38;;;11.32;;
23119;SDS011;11729;50.836;4.330;2022-12-24T00:58:02;59.90;;;12.63;;
23119;SDS011;11729;50.836;4.330;2022-12-24T01:00:28;51.95;;;11.57;;
23119;SDS011;11729;50.836;4.330;2022-12-24T01:02:53;61.33;;;10.60;;
23119;SDS011;11729;50.836;4.330;2022-12-24T01:05:19;52.30;;;10.27;;
23119;SDS011;11729;50.836;4.330;2022-12-24T01:07:45;49.15;;;10.32;;
23119;SDS011;11729;50.836;4.330;2022-12-24T01:10:13;57.88;;;10.98;;
23119;SDS011;11729;50.836;4.330;2022-12-24T01:12:41;48.00;;;10.07;;
23119;SDS011;11729;50.836;4.330;2022-12-24T01:15:07;50.38;;;10.23;;
23119;SDS011;11729;50.836;4.330;2022-12-24T01:17:33;61.08;;;10.25;;
23119;SDS011;11729;50.836;4.330;2022-12-24T01:20:00;4.60;;;4.40;;
23119;SDS011;11729;50.836;4.330;2022-12-24T01:22:26;4.90;;;4.70;;
23119;SDS011;11729;50.836;4.330;2022-12-24T01:24:51;4.70;;;4.50;;
23119;SDS011;11729;50.836;4.330;2022-12-24T01:27:17;4.60;;;4.40;;
23119;SDS011;11729;50.836;4.330;2022-12-24T01:29:43;5.00;;;4.75;;
23119;SDS011;11729;50.836;4.330;2022-12-24T01:32:08;5.40;;;5.18;;
23119;SDS011;11729;50.836;4.330;2022-12-24T01:34:34;4.50;;;4.30;;
23119;SDS011;11729;50.836;4.330;2022-12-24T01:37:00;4.50;;;4.30;;
23119;SDS011;11729;50.836;4.330;2022-12-24T01:39:26;4.50;;;4.30;;
23119;SDS011;11729;50.836;4.330;2022-12-24T01:41:51;4.60;;;4.40;;
23119;SDS011;11729;50.836;4.330;2022-12-24T01:44:40;6.50;;;6.18;;
23119;SDS011;11729;50.836;4.330;2022-12-24T01:47:15;5.13;;;4.68;;
23119;SDS011;11729;50.836;4.330;2022-12-24T01:49:47;4.72;;;4.53;;
23119;SDS011;11729;50.836;4.330;2022-12-24T01:52:21;9.30;;;5.55;;
23119;SDS011;11729;50.836;4.330;2022-12-24T01:54:49;4.50;;;4.30;;
23119;SDS011;11729;50.836;4.330;2022-12-24T01:57:23;4.50;;;4.30;;
23119;SDS011;11729;50.836;4.330;2022-12-24T02:00:04;4.55;;;4.35;;
23119;SDS011;11729;50.836;4.330;2022-12-24T02:02:32;6.25;;;5.85;;
23119;SDS011;11729;50.836;4.330;2022-12-24T02:05:04;4.82;;;4.63;;
23119;SDS011;11729;50.836;4.330;2022-12-24T02:07:36;4.80;;;4.60;;
23119;SDS011;11729;50.836;4.330;2022-12-24T02:10:03;5.90;;;5.07;;
23119;SDS011;11729;50.836;4.330;2022-12-24T02:12:30;4.88;;;4.68;;
23119;SDS011;11729;50.836;4.330;2022-12-24T02:15:00;4.90;;;4.70;;
23119;SDS011;11729;50.836;4.330;2022-12-24T02:34:50;4.50;;;4.30;;
23119;SDS011;11729;50.836;4.330;2022-12-24T02:37:36;4.50;;;4.30;;
23119;SDS011;11729;50.836;4.330;2022-12-24T02:42:49;5.07;;;4.88;;
23119;SDS011;11729;50.836;4.330;2022-12-24T02:45:21;4.40;;;4.20;;
23119;SDS011;11729;50.836;4.330;2022-12-24T02:47:50;4.50;;;4.30;;
23119;SDS011;11729;50.836;4.330;2022-12-24T02:50:16;4.40;;;4.20;;
23119;SDS011;11729;50.836;4.330;2022-12-24T02:52:43;4.82;;;4.63;;
23119;SDS011;11729;50.836;4.330;2022-12-24T02:55:18;4.70;;;4.50;;
23119;SDS011;11729;50.836;4.330;2022-12-24T03:00:32;44.38;;;5.85;;
23119;SDS011;11729;50.836;4.330;2022-12-24T03:06:07;7.80;;;6.75;;
23119;SDS011;11729;50.836;4.330;2022-12-24T03:08:59;4.88;;;4.68;;
23119;SDS011;11729;50.836;4.330;2022-12-24T03:11:30;4.50;;;4.30;;
23119;SDS011;11729;50.836;4.330;2022-12-24T03:13:56;4.50;;;4.30;;
23119;SDS011;11729;50.836;4.330;2022-12-24T03:16:24;4.60;;;4.40;;
23119;SDS011;11729;50.836;4.330;2022-12-24T03:18:52;5.93;;;5.63;;
23119;SDS011;11729;50.836;4.330;2022-12-24T03:21:21;4.72;;;4.53;;
23119;SDS011;11729;50.836;4.330;2022-12-24T03:23:51;4.65;;;4.45;;
23119;SDS011;11729;50.836;4.330;2022-12-24T03:26:19;4.90;;;4.70;;
23119;SDS011;11729;50.836;4.330;2022-12-24T03:28:45;28.70;;;8.63;;
23119;SDS011;11729;50.836;4.330;2022-12-24T03:31:12;4.50;;;4.30;;
23119;SDS011;11729;50.836;4.330;2022-12-24T03:33:38;4.60;;;4.40;;
23119;SDS011;11729;50.836;4.330;2022-12-24T03:36:04;4.60;;;4.40;;
23119;SDS011;11729;50.836;4.330;2022-12-24T03:38:30;4.70;;;4.50;;
23119;SDS011;11729;50.836;4.330;2022-12-24T03:40:56;4.60;;;4.40;;
23119;SDS011;11729;50.836;4.330;2022-12-24T03:43:22;5.40;;;5.13;;
23119;SDS011;11729;50.836;4.330;2022-12-24T03:45:48;4.70;;;4.50;;
23119;SDS011;11729;50.836;4.330;2022-12-24T03:48:13;4.90;;;4.70;;
23119;SDS011;11729;50.836;4.330;2022-12-24T03:50:39;33.10;;;9.15;;
23119;SDS011;11729;50.836;4.330;2022-12-24T03:53:05;5.28;;;5.07;;
23119;SDS011;11729;50.836;4.330;2022-12-24T03:55:31;30.52;;;6.25;;
23119;SDS011;11729;50.836;4.330;2022-12-24T03:57:58;4.40;;;4.20;;
23119;SDS011;11729;50.836;4.330;2022-12-24T04:00:23;4.50;;;4.30;;
23119;SDS011;11729;50.836;4.330;2022-12-24T04:02:49;4.50;;;4.30;;
23119;SDS011;11729;50.836;4.330;2022-12-24T04:05:16;5.88;;;5.47;;
23119;SDS011;11729;50.836;4.330;2022-12-24T04:07:43;5.22;;;5.03;;
23119;SDS011;11729;50.836;4.330;2022-12-24T04:10:09;5.47;;;5.20;;
23119;SDS011;11729;50.836;4.330;2022-12-24T04:12:35;4.70;;;4.50;;
23119;SDS011;11729;50.836;4.330;2022-12-24T04:15:02;41.03;;;5.95;;
23119;SDS011;11729;50.836;4.330;2022-12-24T04:17:28;4.90;;;4.70;;
23119;SDS011;11729;50.836;4.330;2022-12-24T04:19:53;5.32;;;5.03;;
23119;SDS011;11729;50.836;4.330;2022-12-24T04:22:19;7.22;;;6.72;;
23119;SDS011;11729;50.836;4.330;2022-12-24T04:24:45;4.60;;;4.40;;
23119;SDS011;11729;50.836;4.330;2022-12-24T04:27:12;4.55;;;4.35;;
23119;SDS011;11729;50.836;4.330;2022-12-24T04:29:38;5.10;;;4.87;;
23119;SDS011;11729;50.836;4.330;2022-12-24T04:32:04;4.80;;;4.60;;
23119;SDS011;11729;50.836;4.330;2022-12-24T04:34:29;5.18;;;4.97;;
23119;SDS011;11729;50.836;4.330;2022-12-24T04:36:55;4.50;;;4.30;;
23119;SDS011;11729;50.836;4.330;2022-12-24T04:39:20;4.80;;;4.60;;
23119;SDS011;11729;50.836;4.330;2022-12-24T04:41:46;4.82;;;4.63;;
23119;SDS011;11729;50.836;4.330;2022-12-24T04:44:13;6.57;;;6.15;;
23119;SDS011;11729;50.836;4.330;2022-12-24T04:46:38;5.78;;;5.47;;
23119;SDS011;11729;50.836;4.330;2022-12-24T04:49:06;4.70;;;4.50;;
23119;SDS011;11729;50.836;4.330;2022-12-24T04:51:32;4.60;;;4.40;;
23119;SDS011;11729;50.836;4.330;2022-12-24T04:53:57;4.50;;;4.30;;
23119;SDS011;11729;50.836;4.330;2022-12-24T04:56:24;4.60;;;4.40;;
23119;SDS011;11729;50.836;4.330;2022-12-24T04:58:51;4.72;;;4.53;;
23119;SDS011;11729;50.836;4.330;2022-12-24T05:01:19;5.00;;;4.70;;
23119;SDS011;11729;50.836;4.330;2022-12-24T05:03:46;4.55;;;4.35;;
23119;SDS011;11729;50.836;4.330;2022-12-24T05:06:14;5.78;;;5.47;;
23119;SDS011;11729;50.836;4.330;2022-12-24T05:08:43;4.50;;;4.30;;
23119;SDS011;11729;50.836;4.330;2022-12-24T05:11:09;4.50;;;4.30;;
23119;SDS011;11729;50.836;4.330;2022-12-24T05:13:38;5.82;;;5.43;;
23119;SDS011;11729;50.836;4.330;2022-12-24T05:16:05;4.50;;;4.30;;
23119;SDS011;11729;50.836;4.330;2022-12-24T05:18:31;4.60;;;4.40;;
23119;SDS011;11729;50.836;4.330;2022-12-24T05:20:56;4.50;;;4.30;;
23119;SDS011;11729;50.836;4.330;2022-12-24T05:23:23;4.40;;;4.20;;
23119;SDS011;11729;50.836;4.330;2022-12-24T05:26:12;4.47;;;4.28;;
23119;SDS011;11729;50.836;4.330;2022-12-24T05:28:49;7.93;;;6.85;;
23119;SDS011;11729;50.836;4.330;2022-12-24T05:31:17;7.13;;;4.68;;
23119;SDS011;11729;50.836;4.330;2022-12-24T05:33:43;4.50;;;4.30;;
23119;SDS011;11729;50.836;4.330;2022-12-24T05:36:10;4.38;;;4.18;;
23119;SDS011;11729;50.836;4.330;2022-12-24T05:38:36;4.47;;;4.28;;
23119;SDS011;11729;50.836;4.330;2022-12-24T05:41:02;4.50;;;4.30;;
23119;SDS011;11729;50.836;4.330;2022-12-24T05:43:28;4.70;;;4.50;;
23119;SDS011;11729;50.836;4.330;2022-12-24T05:46:00;5.10;;;4.90;;
23119;SDS011;11729;50.836;4.330;2022-12-24T05:48:27;4.47;;;4.28;;
23119;SDS011;11729;50.836;4.330;2022-12-24T05:50:53;4.50;;;4.30;;
23119;SDS011;11729;50.836;4.330;2022-12-24T05:53:18;4.90;;;4.70;;
23119;SDS011;11729;50.836;4.330;2022-12-24T05:55:45;6.18;;;5.78;;
23119;SDS011;11729;50.836;4.330;2022-12-24T05:58:10;4.40;;;4.20;;
23119;SDS011;11729;50.836;4.330;2022-12-24T06:00:36;4.80;;;4.60;;
23119;SDS011;11729;50.836;4.330;2022-12-24T06:03:02;6.10;;;5.80;;
23119;SDS011;11729;50.836;4.330;2022-12-24T06:05:27;4.40;;;4.20;;
23119;SDS011;11729;50.836;4.330;2022-12-24T06:07:53;5.70;;;5.40;;
23119;SDS011;11729;50.836;4.330;2022-12-24T06:10:18;4.78;;;4.57;;
23119;SDS011;11729;50.836;4.330;2022-12-24T06:12:44;4.60;;;4.40;;
23119;SDS011;11729;50.836;4.330;2022-12-24T06:15:10;5.88;;;5.47;;
23119;SDS011;11729;50.836;4.330;2022-12-24T06:17:35;5.00;;;4.80;;
23119;SDS011;11729;50.836;4.330;2022-12-24T06:20:01;12.00;;;4.97;;
23119;SDS011;11729;50.836;4.330;2022-12-24T06:22:28;4.70;;;4.50;;
23119;SDS011;11729;50.836;4.330;2022-12-24T06:24:53;7.70;;;7.03;;
23119;SDS011;11729;50.836;4.330;2022-12-24T06:27:19;5.68;;;5.43;;
23119;SDS011;11729;50.836;4.330;2022-12-24T06:29:44;4.60;;;4.40;;
23119;SDS011;11729;50.836;4.330;2022-12-24T06:32:10;4.60;;;4.40;;
23119;SDS011;11729;50.836;4.330;2022-12-24T06:34:36;4.68;;;4.47;;
23119;SDS011;11729;50.836;4.330;2022-12-24T06:37:01;4.70;;;4.50;;
23119;SDS011;11729;50.836;4.330;2022-12-24T06:39:27;4.55;;;4.35;;
23119;SDS011;11729;50.836;4.330;2022-12-24T06:41:53;4.70;;;4.50;;
23119;SDS011;11729;50.836;4.330;2022-12-24T06:44:18;9.88;;;9.13;;
23119;SDS011;11729;50.836;4.330;2022-12-24T06:46:44;5.05;;;4.85;;
23119;SDS011;11729;50.836;4.330;2022-12-24T06:49:11;4.70;;;4.50;;
23119;SDS011;11729;50.836;4.330;2022-12-24T06:51:36;5.63;;;5.35;;
23119;SDS011;11729;50.836;4.330;2022-12-24T06:54:02;4.70;;;4.50;;
23119;SDS011;11729;50.836;4.330;2022-12-24T06:56:28;4.70;;;4.50;;
23119;SDS011;11729;50.836;4.330;2022-12-24T06:58:54;4.68;;;4.47;;
23119;SDS011;11729;50.836;4.330;2022-12-24T07:01:19;5.70;;;5.30;;
23119;SDS011;11729;50.836;4.330;2022-12-24T07:03:45;5.00;;;4.80;;
23119;SDS011;11729;50.836;4.330;2022-12-24T07:06:17;4.60;;;4.40;;
23119;SDS011;11729;50.836;4.330;2022-12-24T07:08:45;4.43;;;4.22;;
23119;SDS011;11729;50.836;4.330;2022-12-24T07:11:11;4.90;;;4.70;;
23119;SDS011;11729;50.836;4.330;2022-12-24T07:13:37;4.35;;;4.15;;
23119;SDS011;11729;50.836;4.330;2022-12-24T07:16:03;4.50;;;4.30;;
23119;SDS011;11729;50.836;4.330;2022-12-24T07:18:29;4.50;;;4.30;;
23119;SDS011;11729;50.836;4.330;2022-12-24T07:20:56;4.68;;;4.47;;
23119;SDS011;11729;50.836;4.330;2022-12-24T07:23:22;4.90;;;4.70;;
23119;SDS011;11729;50.836;4.330;2022-12-24T07:25:48;5.97;;;5.50;;
23119;SDS011;11729;50.836;4.330;2022-12-24T07:28:13;4.70;;;4.50;;
23119;SDS011;11729;50.836;4.330;2022-12-24T07:30:39;7.53;;;6.57;;
23119;SDS011;11729;50.836;4.330;2022-12-24T07:33:04;4.68;;;4.47;;
23119;SDS011;11729;50.836;4.330;2022-12-24T07:35:30;4.60;;;4.40;;
23119;SDS011;11729;50.836;4.330;2022-12-24T07:37:56;6.68;;;6.25;;
23119;SDS011;11729;50.836;4.330;2022-12-24T07:40:21;4.70;;;4.50;;
23119;SDS011;11729;50.836;4.330;2022-12-24T07:42:47;5.35;;;5.15;;
23119;SDS011;11729;50.836;4.330;2022-12-24T07:45:15;8.05;;;7.53;;
23119;SDS011;11729;50.836;4.330;2022-12-24T07:47:40;10.30;;;7.90;;
23119;SDS011;11729;50.836;4.330;2022-12-24T07:50:06;4.65;;;4.45;;
23119;SDS011;11729;50.836;4.330;2022-12-24T07:52:32;4.50;;;4.30;;
23119;SDS011;11729;50.836;4.330;2022-12-24T07:54:58;5.20;;;4.93;;
23119;SDS011;11729;50.836;4.330;2022-12-24T07:57:23;4.78;;;4.57;;
23119;SDS011;11729;50.836;4.330;2022-12-24T07:59:49;4.60;;;4.40;;
23119;SDS011;11729;50.836;4.330;2022-12-24T08:02:15;5.35;;;5.15;;
23119;SDS011;11729;50.836;4.330;2022-12-24T08:04:41;5.97;;;5.68;;
23119;SDS011;11729;50.836;4.330;2022-12-24T08:07:06;4.60;;;4.40;;
23119;SDS011;11729;50.836;4.330;2022-12-24T08:09:33;4.80;;;4.60;;
23119;SDS011;11729;50.836;4.330;2022-12-24T08:11:59;4.93;;;4.72;;
23119;SDS011;11729;50.836;4.330;2022-12-24T08:14:26;5.20;;;4.90;;
23119;SDS011;11729;50.836;4.330;2022-12-24T08:16:54;4.70;;;4.50;;
23119;SDS011;11729;50.836;4.330;2022-12-24T08:19:20;4.60;;;4.40;;
23119;SDS011;11729;50.836;4.330;2022-12-24T08:21:45;4.85;;;4.65;;
23119;SDS011;11729;50.836;4.330;2022-12-24T08:24:11;4.70;;;4.50;;
23119;SDS011;11729;50.836;4.330;2022-12-24T08:26:37;4.85;;;4.65;;
23119;SDS011;11729;50.836;4.330;2022-12-24T08:29:03;4.80;;;4.60;;
23119;SDS011;11729;50.836;4.330;2022-12-24T08:31:29;6.88;;;6.38;;
23119;SDS011;11729;50.836;4.330;2022-12-24T08:34:00;4.60;;;4.40;;
23119;SDS011;11729;50.836;4.330;2022-12-24T08:36:27;5.22;;;4.82;;
23119;SDS011;11729;50.836;4.330;2022-12-24T08:38:52;17.20;;;5.57;;
23119;SDS011;11729;50.836;4.330;2022-12-24T08:41:18;5.53;;;5.30;;
23119;SDS011;11729;50.836;4.330;2022-12-24T08:43:43;4.40;;;4.20;;
23119;SDS011;11729;50.836;4.330;2022-12-24T08:46:09;4.80;;;4.60;;
23119;SDS011;11729;50.836;4.330;2022-12-24T08:48:36;4.50;;;4.30;;
23119;SDS011;11729;50.836;4.330;2022-12-24T08:51:08;51.05;;;11.23;;
23119;SDS011;11729;50.836;4.330;2022-12-24T08:53:35;55.28;;;10.80;;
23119;SDS011;11729;50.836;4.330;2022-12-24T08:56:02;49.22;;;11.25;;
23119;SDS011;11729;50.836;4.330;2022-12-24T08:58:29;51.70;;;10.43;;
23119;SDS011;11729;50.836;4.330;2022-12-24T09:00:56;48.53;;;10.38;;
23119;SDS011;11729;50.836;4.330;2022-12-24T09:03:22;55.78;;;10.52;;
23119;SDS011;11729;50.836;4.330;2022-12-24T09:05:48;37.78;;;9.88;;
23119;SDS011;11729;50.836;4.330;2022-12-24T09:08:13;45.03;;;11.05;;
23119;SDS011;11729;50.836;4.330;2022-12-24T09:10:39;38.47;;;9.75;;
23119;SDS011;11729;50.836;4.330;2022-12-24T09:13:04;41.13;;;10.20;;
23119;SDS011;11729;50.836;4.330;2022-12-24T09:15:30;40.72;;;9.68;;
23119;SDS011;11729;50.836;4.330;2022-12-24T09:17:56;47.40;;;10.80;;
23119;SDS011;11729;50.836;4.330;2022-12-24T09:20:22;44.33;;;9.88;;
23119;SDS011;11729;50.836;4.330;2022-12-24T09:22:47;58.42;;;11.10;;
23119;SDS011;11729;50.836;4.330;2022-12-24T09:25:13;57.70;;;12.82;;
23119;SDS011;11729;50.836;4.330;2022-12-24T09:27:39;49.55;;;13.00;;
23119;SDS011;11729;50.836;4.330;2022-12-24T09:30:05;51.05;;;11.70;;
23119;SDS011;11729;50.836;4.330;2022-12-24T09:32:31;47.85;;;11.35;;
23119;SDS011;11729;50.836;4.330;2022-12-24T09:34:57;58.33;;;11.35;;
23119;SDS011;11729;50.836;4.330;2022-12-24T09:37:23;40.80;;;11.73;;
23119;SDS011;11729;50.836;4.330;2022-12-24T09:39:48;48.05;;;11.52;;
23119;SDS011;11729;50.836;4.330;2022-12-24T09:45:20;39.30;;;11.10;;
23119;SDS011;11729;50.836;4.330;2022-12-24T09:47:51;46.05;;;11.50;;
23119;SDS011;11729;50.836;4.330;2022-12-24T09:52:52;45.10;;;11.05;;
23119;SDS011;11729;50.836;4.330;2022-12-24T09:55:27;50.28;;;11.32;;
23119;SDS011;11729;50.836;4.330;2022-12-24T09:57:57;53.78;;;10.82;;
23119;SDS011;11729;50.836;4.330;2022-12-24T10:00:28;43.72;;;11.48;;
23119;SDS011;11729;50.836;4.330;2022-12-24T10:02:57;39.78;;;11.52;;
23119;SDS011;11729;50.836;4.330;2022-12-24T10:22:56;54.50;;;12.02;;
23119;SDS011;11729;50.836;4.330;2022-12-24T10:25:31;53.50;;;13.68;;
23119;SDS011;11729;50.836;4.330;2022-12-24T10:28:12;46.58;;;12.75;;
23119;SDS011;11729;50.836;4.330;2022-12-24T10:30:40;45.50;;;12.43;;
23119;SDS011;11729;50.836;4.330;2022-12-24T10:33:13;55.33;;;12.18;;
23119;SDS011;11729;50.836;4.330;2022-12-24T10:35:50;57.58;;;12.27;;
23119;SDS011;11729;50.836;4.330;2022-12-24T10:38:19;44.40;;;12.35;;
23119;SDS011;11729;50.836;4.330;2022-12-24T10:40:47;42.20;;;11.65;;
23119;SDS011;11729;50.836;4.330;2022-12-24T10:43:17;42.33;;;10.75;;
23119;SDS011;11729;50.836;4.330;2022-12-24T10:45:52;50.95;;;12.70;;
23119;SDS011;11729;50.836;4.330;2022-12-24T10:48:33;47.60;;;11.27;;
23119;SDS011;11729;50.836;4.330;2022-12-24T10:51:11;44.65;;;12.32;;
23119;SDS011;11729;50.836;4.330;2022-12-24T10:53:48;52.50;;;13.57;;
23119;SDS011;11729;50.836;4.330;2022-12-24T10:56:18;51.20;;;12.68;;
23119;SDS011;11729;50.836;4.330;2022-12-24T10:58:46;45.35;;;12.25;;
23119;SDS011;11729;50.836;4.330;2022-12-24T11:01:19;48.70;;;12.77;;
23119;SDS011;11729;50.836;4.330;2022-12-24T11:04:05;45.30;;;11.80;;
23119;SDS011;11729;50.836;4.330;2022-12-24T11:06:31;62.28;;;12.50;;
23119;SDS011;11729;50.836;4.330;2022-12-24T11:08:57;45.78;;;11.70;;
23119;SDS011;11729;50.836;4.330;2022-12-24T11:11:43;47.85;;;11.70;;
23119;SDS011;11729;50.836;4.330;2022-12-24T11:14:10;48.30;;;11.85;;
23119;SDS011;11729;50.836;4.330;2022-12-24T11:16:46;47.67;;;10.57;;
23119;SDS011;11729;50.836;4.330;2022-12-24T11:19:18;49.75;;;11.88;;
23119;SDS011;11729;50.836;4.330;2022-12-24T11:22:05;42.63;;;11.32;;
23119;SDS011;11729;50.836;4.330;2022-12-24T11:24:33;43.67;;;12.23;;
23119;SDS011;11729;50.836;4.330;2022-12-24T11:32:43;51.15;;;13.10;;
23119;SDS011;11729;50.836;4.330;2022-12-24T11:35:15;45.03;;;11.77;;
23119;SDS011;11729;50.836;4.330;2022-12-24T11:38:09;49.30;;;11.55;;
23119;SDS011;11729;50.836;4.330;2022-12-24T11:40:45;49.58;;;12.02;;
23119;SDS011;11729;50.836;4.330;2022-12-24T11:43:14;42.65;;;10.95;;
23119;SDS011;11729;50.836;4.330;2022-12-24T11:45:54;38.60;;;10.35;;
23119;SDS011;11729;50.836;4.330;2022-12-24T11:48:25;43.70;;;11.38;;
23119;SDS011;11729;50.836;4.330;2022-12-24T11:51:00;48.10;;;12.50;;
23119;SDS011;11729;50.836;4.330;2022-12-24T11:53:43;44.63;;;12.63;;
23119;SDS011;11729;50.836;4.330;2022-12-24T11:56:36;59.08;;;18.10;;
23119;SDS011;11729;50.836;4.330;2022-12-24T12:02:01;37.50;;;11.35;;
23119;SDS011;11729;50.836;4.330;2022-12-24T12:04:57;41.30;;;11.45;;
23119;SDS011;11729;50.836;4.330;2022-12-24T12:07:30;41.97;;;11.15;;
23119;SDS011;11729;50.836;4.330;2022-12-24T12:10:02;39.88;;;11.02;;
23119;SDS011;11729;50.836;4.330;2022-12-24T12:12:35;45.70;;;10.95;;
23119;SDS011;11729;50.836;4.330;2022-12-24T12:15:10;37.47;;;11.40;;
23119;SDS011;11729;50.836;4.330;2022-12-24T12:22:55;39.60;;;11.95;;
23119;SDS011;11729;50.836;4.330;2022-12-24T12:28:06;49.17;;;14.88;;
23119;SDS011;11729;50.836;4.330;2022-12-24T12:30:37;49.88;;;16.95;;
23119;SDS011;11729;50.836;4.330;2022-12-24T12:35:56;47.38;;;11.88;;
23119;SDS011;11729;50.836;4.330;2022-12-24T12:38:26;65.45;;;21.83;;
23119;SDS011;11729;50.836;4.330;2022-12-24T12:43:46;40.75;;;11.70;;
23119;SDS011;11729;50.836;4.330;2022-12-24T12:57:32;43.00;;;12.75;;
23119;SDS011;11729;50.836;4.330;2022-12-24T13:00:03;42.70;;;13.20;;
23119;SDS011;11729;50.836;4.330;2022-12-24T13:08:27;40.95;;;11.65;;
23119;SDS011;11729;50.836;4.330;2022-12-24T13:11:15;46.47;;;14.85;;
23119;SDS011;11729;50.836;4.330;2022-12-24T13:13:55;47.65;;;12.68;;
23119;SDS011;11729;50.836;4.330;2022-12-24T13:21:58;37.50;;;11.02;;
23119;SDS011;11729;50.836;4.330;2022-12-24T13:24:28;32.95;;;11.40;;
23119;SDS011;11729;50.836;4.330;2022-12-24T13:34:56;39.17;;;12.40;;
23119;SDS011;11729;50.836;4.330;2022-12-24T13:47:55;42.30;;;12.05;;
23119;SDS011;11729;50.836;4.330;2022-12-24T13:50:49;41.35;;;11.57;;
23119;SDS011;11729;50.836;4.330;2022-12-24T13:56:25;43.78;;;11.38;;
23119;SDS011;11729;50.836;4.330;2022-12-24T13:58:31;40.45;;;10.90;;
23119;SDS011;11729;50.836;4.330;2022-12-24T14:01:04;45.88;;;11.45;;
23119;SDS011;11729;50.836;4.330;2022-12-24T14:03:41;34.08;;;10.88;;
23119;SDS011;11729;50.836;4.330;2022-12-24T14:06:21;44.45;;;12.57;;
23119;SDS011;11729;50.836;4.330;2022-12-24T14:09:08;36.00;;;11.15;;
23119;SDS011;11729;50.836;4.330;2022-12-24T14:14:39;40.88;;;11.60;;
23119;SDS011;11729;50.836;4.330;2022-12-24T14:17:39;48.55;;;11.43;;
23119;SDS011;11729;50.836;4.330;2022-12-24T14:20:00;37.10;;;10.52;;
23119;SDS011;11729;50.836;4.330;2022-12-24T14:22:27;38.25;;;12.90;;
23119;SDS011;11729;50.836;4.330;2022-12-24T14:24:58;52.42;;;18.38;;
23119;SDS011;11729;50.836;4.330;2022-12-24T14:32:41;45.80;;;11.35;;
23119;SDS011;11729;50.836;4.330;2022-12-24T14:37:41;38.80;;;11.05;;
23119;SDS011;11729;50.836;4.330;2022-12-24T14:40:17;43.03;;;10.82;;
23119;SDS011;11729;50.836;4.330;2022-12-24T14:48:59;38.92;;;12.20;;
23119;SDS011;11729;50.836;4.330;2022-12-24T14:51:38;46.40;;;11.38;;
23119;SDS011;11729;50.836;4.330;2022-12-24T14:54:32;45.25;;;11.02;;
23119;SDS011;11729;50.836;4.330;2022-12-24T14:59:55;38.78;;;11.90;;
23119;SDS011;11729;50.836;4.330;2022-12-24T15:02:40;44.42;;;11.40;;
23119;SDS011;11729;50.836;4.330;2022-12-24T15:05:17;40.03;;;12.02;;
23119;SDS011;11729;50.836;4.330;2022-12-24T15:08:02;48.20;;;11.60;;
23119;SDS011;11729;50.836;4.330;2022-12-24T15:13:25;36.38;;;11.75;;
23119;SDS011;11729;50.836;4.330;2022-12-24T15:15:51;44.90;;;13.25;;
23119;SDS011;11729;50.836;4.330;2022-12-24T15:18:20;42.83;;;12.93;;
23119;SDS011;11729;50.836;4.330;2022-12-24T15:20:50;44.03;;;12.30;;
23119;SDS011;11729;50.836;4.330;2022-12-24T15:23:25;43.33;;;13.48;;
23119;SDS011;11729;50.836;4.330;2022-12-24T15:26:10;45.93;;;12.30;;
23119;SDS011;11729;50.836;4.330;2022-12-24T15:28:39;45.85;;;11.88;;
23119;SDS011;11729;50.836;4.330;2022-12-24T15:31:15;47.78;;;12.45;;
23119;SDS011;11729;50.836;4.330;2022-12-24T15:33:46;40.83;;;11.95;;
23119;SDS011;11729;50.836;4.330;2022-12-24T15:36:13;44.67;;;11.98;;
23119;SDS011;11729;50.836;4.330;2022-12-24T15:38:41;45.67;;;13.45;;
23119;SDS011;11729;50.836;4.330;2022-12-24T15:43:42;42.88;;;13.38;;
23119;SDS011;11729;50.836;4.330;2022-12-24T15:46:16;38.47;;;12.40;;
23119;SDS011;11729;50.836;4.330;2022-12-24T15:48:43;44.88;;;11.75;;
23119;SDS011;11729;50.836;4.330;2022-12-24T15:51:10;51.38;;;12.52;;
23119;SDS011;11729;50.836;4.330;2022-12-24T15:53:40;55.97;;;13.30;;
23119;SDS011;11729;50.836;4.330;2022-12-24T15:56:27;54.25;;;13.05;;
23119;SDS011;11729;50.836;4.330;2022-12-24T16:01:56;46.10;;;12.77;;
23119;SDS011;11729;50.836;4.330;2022-12-24T16:04:41;52.80;;;14.05;;
23119;SDS011;11729;50.836;4.330;2022-12-24T16:07:09;49.70;;;15.38;;
23119;SDS011;11729;50.836;4.330;2022-12-24T16:09:47;71.95;;;24.90;;
23119;SDS011;11729;50.836;4.330;2022-12-24T16:12:22;64.60;;;22.65;;
23119;SDS011;11729;50.836;4.330;2022-12-24T16:14:54;56.28;;;16.02;;
23119;SDS011;11729;50.836;4.330;2022-12-24T16:17:23;51.60;;;14.82;;
23119;SDS011;11729;50.836;4.330;2022-12-24T16:19:58;49.70;;;15.02;;
23119;SDS011;11729;50.836;4.330;2022-12-24T16:22:27;54.88;;;14.52;;
23119;SDS011;11729;50.836;4.330;2022-12-24T16:25:00;53.92;;;14.10;;
23119;SDS011;11729;50.836;4.330;2022-12-24T16:27:39;43.50;;;13.10;;
23119;SDS011;11729;50.836;4.330;2022-12-24T16:30:06;41.67;;;13.00;;
23119;SDS011;11729;50.836;4.330;2022-12-24T16:32:34;50.20;;;14.43;;
23119;SDS011;11729;50.836;4.330;2022-12-24T16:35:03;47.85;;;13.00;;
23119;SDS011;11729;50.836;4.330;2022-12-24T16:37:31;55.63;;;14.20;;
23119;SDS011;11729;50.836;4.330;2022-12-24T16:39:57;49.45;;;13.25;;
23119;SDS011;11729;50.836;4.330;2022-12-24T16:42:24;48.47;;;13.50;;
23119;SDS011;11729;50.836;4.330;2022-12-24T16:45:09;48.75;;;13.20;;
23119;SDS011;11729;50.836;4.330;2022-12-24T16:47:34;45.22;;;13.93;;
23119;SDS011;11729;50.836;4.330;2022-12-24T16:50:05;53.63;;;13.57;;
23119;SDS011;11729;50.836;4.330;2022-12-24T16:52:32;48.10;;;15.80;;
23119;SDS011;11729;50.836;4.330;2022-12-24T16:54:58;64.00;;;23.90;;
23119;SDS011;11729;50.836;4.330;2022-12-24T16:57:25;54.17;;;17.85;;
23119;SDS011;11729;50.836;4.330;2022-12-24T16:59:51;56.45;;;17.63;;
23119;SDS011;11729;50.836;4.330;2022-12-24T17:02:18;51.00;;;16.48;;
23119;SDS011;11729;50.836;4.330;2022-12-24T17:04:46;53.22;;;16.17;;
23119;SDS011;11729;50.836;4.330;2022-12-24T17:07:14;50.78;;;16.73;;
23119;SDS011;11729;50.836;4.330;2022-12-24T17:09:41;55.50;;;17.13;;